createdAt,value
2023-02-17T00:01:15.508Z,22.05
2023-02-17T00:03:48.007Z,21.60
2023-02-17T00:06:16.114Z,22.25
2023-02-17T00:08:46.516Z,24.42
2023-02-17T00:11:15.945Z,23.08
2023-02-17T00:13:42.852Z,23.75
2023-02-17T00:16:21.330Z,23.40
2023-02-17T00:18:52.352Z,23.50
2023-02-17T00:21:21.151Z,23.98
2023-02-17T00:23:48.745Z,22.65
2023-02-17T00:26:18.540Z,24.17
2023-02-17T00:28:45.583Z,22.60
2023-02-17T00:31:27.512Z,21.90
2023-02-17T00:33:55.470Z,22.70
2023-02-17T00:36:22.194Z,22.40
2023-02-17T00:38:49.121Z,22.95
2023-02-17T00:41:20.109Z,24.25
2023-02-17T00:43:47.730Z,22.20
2023-02-17T00:46:15.147Z,22.35
2023-02-17T00:48:43.219Z,23.67
2023-02-17T00:51:12.956Z,22.42
2023-02-17T00:53:42.219Z,22.63
2023-02-17T00:56:09.265Z,21.85
2023-02-17T00:58:36.892Z,22.42
2023-02-17T01:01:04.453Z,20.27
2023-02-17T01:03:31.581Z,20.02
2023-02-17T01:06:00.108Z,19.38
2023-02-17T01:08:30.280Z,19.70
2023-02-17T01:10:56.757Z,19.73
2023-02-17T01:13:23.237Z,19.00
2023-02-17T01:15:52.490Z,18.73
2023-02-17T01:18:21.260Z,19.15
2023-02-17T01:20:47.801Z,18.05
2023-02-17T01:23:17.323Z,17.70
2023-02-17T01:25:47.266Z,17.75
2023-02-17T01:28:20.468Z,18.52
2023-02-17T01:30:47.942Z,18.50
2023-02-17T01:33:14.703Z,18.42
2023-02-17T01:35:44.046Z,18.40
2023-02-17T01:38:13.698Z,17.65
2023-02-17T01:40:49.487Z,18.15
2023-02-17T01:43:20.318Z,17.50
2023-02-17T01:46:07.994Z,18.25
2023-02-17T01:48:46.410Z,16.25
2023-02-17T01:51:26.617Z,17.85
2023-02-17T01:54:07.532Z,17.92
2023-02-17T01:56:39.953Z,17.90
2023-02-17T01:59:12.653Z,17.60
2023-02-17T02:01:40.151Z,18.33
2023-02-17T02:04:08.398Z,18.85
2023-02-17T02:06:47.644Z,19.30
2023-02-17T02:09:24.925Z,17.88
2023-02-17T02:11:52.524Z,18.52
2023-02-17T02:14:26.456Z,18.83
2023-02-17T02:16:55.846Z,19.27
2023-02-17T02:19:47.175Z,18.05
2023-02-17T02:22:25.536Z,18.15
2023-02-17T02:25:04.561Z,18.40
2023-02-17T02:27:41.596Z,18.55
2023-02-17T02:30:39.369Z,18.60
2023-02-17T02:33:35.534Z,18.10
2023-02-17T02:36:27.680Z,18.02
2023-02-17T02:39:04.838Z,16.90
2023-02-17T02:41:40.437Z,17.20
2023-02-17T02:44:09.027Z,17.40
2023-02-17T02:46:39.318Z,17.33
2023-02-17T02:49:08.720Z,16.92
2023-02-17T02:51:59.554Z,16.55
2023-02-17T02:54:44.676Z,16.38
2023-02-17T02:57:25.668Z,16.17
2023-02-17T03:00:04.595Z,16.30
2023-02-17T03:02:44.136Z,16.05
2023-02-17T03:05:20.816Z,15.68
2023-02-17T03:08:04.745Z,16.08
2023-02-17T03:10:33.991Z,16.13
2023-02-17T03:13:05.832Z,16.10
2023-02-17T03:15:34.743Z,15.13
2023-02-17T03:18:02.760Z,15.27
2023-02-17T03:20:40.967Z,15.52
2023-02-17T03:23:13.470Z,14.77
2023-02-17T03:25:40.247Z,14.63
2023-02-17T03:28:06.731Z,15.07
2023-02-17T03:30:35.566Z,15.23
2023-02-17T03:33:04.669Z,15.82
2023-02-17T03:35:31.306Z,14.98
2023-02-17T03:37:57.793Z,15.65
2023-02-17T03:40:24.590Z,15.25
2023-02-17T03:42:51.220Z,14.70
2023-02-17T03:45:17.782Z,15.20
2023-02-17T03:47:47.142Z,14.30
2023-02-17T03:50:13.633Z,14.80
2023-02-17T03:52:40.223Z,14.57
2023-02-17T03:55:06.780Z,15.20
2023-02-17T03:57:34.780Z,14.60
2023-02-17T04:00:01.303Z,14.40
2023-02-17T04:02:30.872Z,15.02
2023-02-17T04:04:57.359Z,14.13
2023-02-17T04:07:23.829Z,15.23
2023-02-17T04:09:50.313Z,15.07
2023-02-17T04:12:16.792Z,14.88
2023-02-17T04:14:43.313Z,14.38
2023-02-17T04:17:09.895Z,14.43
2023-02-17T04:19:36.562Z,12.50
2023-02-17T04:22:04.611Z,12.93
2023-02-17T04:24:31.141Z,13.65
2023-02-17T04:26:57.641Z,13.45
2023-02-17T04:29:24.232Z,12.35
2023-02-17T04:31:50.818Z,13.20
2023-02-17T04:34:17.315Z,12.85
2023-02-17T04:36:44.553Z,12.55
2023-02-17T04:39:11.127Z,13.50
2023-02-17T04:41:37.760Z,12.25
2023-02-17T04:44:04.236Z,12.35
2023-02-17T04:46:30.862Z,13.07
2023-02-17T04:48:57.433Z,13.00
2023-02-17T04:51:23.917Z,11.88
2023-02-17T04:53:50.376Z,13.07
2023-02-17T04:56:16.857Z,12.90
2023-02-17T04:58:43.782Z,13.85
2023-02-17T05:01:10.342Z,13.00
2023-02-17T05:03:36.955Z,12.75
2023-02-17T05:06:03.796Z,13.02
2023-02-17T05:08:30.479Z,13.77
2023-02-17T05:10:56.938Z,13.40
2023-02-17T05:13:23.457Z,12.10
2023-02-17T05:15:49.972Z,13.38
2023-02-17T05:18:16.492Z,13.05
2023-02-17T05:20:43.004Z,12.98
2023-02-17T05:23:09.476Z,12.23
2023-02-17T05:25:36.058Z,13.23
2023-02-17T05:28:02.637Z,13.18
2023-02-17T05:30:29.140Z,12.68
2023-02-17T05:32:56.472Z,12.68
2023-02-17T05:35:22.992Z,13.43
2023-02-17T05:37:49.469Z,13.50
2023-02-17T05:40:16.201Z,12.20
2023-02-17T05:42:42.727Z,12.93
2023-02-17T05:45:09.450Z,12.85
2023-02-17T05:47:36.328Z,12.52
2023-02-17T05:50:04.098Z,12.20
2023-02-17T05:52:30.731Z,12.40
2023-02-17T05:54:57.306Z,13.88
2023-02-17T05:57:25.171Z,14.10
2023-02-17T05:59:51.644Z,13.80
2023-02-17T06:02:18.103Z,13.35
2023-02-17T06:04:44.773Z,12.73
2023-02-17T06:07:11.313Z,14.40
2023-02-17T06:09:37.800Z,14.07
2023-02-17T06:12:04.697Z,13.90
2023-02-17T06:14:31.259Z,11.38
2023-02-17T06:16:59.414Z,14.32
2023-02-17T06:19:27.474Z,13.88
2023-02-17T06:21:53.968Z,13.85
2023-02-17T06:24:20.444Z,12.70
2023-02-17T06:26:47.140Z,14.82
2023-02-17T06:29:13.615Z,15.18
2023-02-17T06:31:43.600Z,12.80
2023-02-17T06:34:10.104Z,15.10
2023-02-17T06:36:36.724Z,15.05
2023-02-17T06:39:03.595Z,13.13
2023-02-17T06:41:30.097Z,15.27
2023-02-17T06:43:56.690Z,14.25
2023-02-17T06:46:23.182Z,15.65
2023-02-17T06:48:49.675Z,15.98
2023-02-17T06:51:16.129Z,15.27
2023-02-17T06:53:42.791Z,15.93
2023-02-17T06:56:09.243Z,16.25
2023-02-17T06:58:37.476Z,15.93
2023-02-17T07:01:04.791Z,17.02
2023-02-17T07:03:32.301Z,16.77
2023-02-17T07:05:59.398Z,16.33
2023-02-17T07:08:26.034Z,16.58
2023-02-17T07:10:53.682Z,15.77
2023-02-17T07:13:20.182Z,16.73
2023-02-17T07:15:46.627Z,14.23
2023-02-17T07:18:13.063Z,14.57
2023-02-17T07:20:39.535Z,14.18
2023-02-17T07:23:06.020Z,15.00
2023-02-17T07:25:32.574Z,15.73
2023-02-17T07:28:00.041Z,14.68
2023-02-17T07:30:26.605Z,14.98
2023-02-17T07:32:53.090Z,15.07
2023-02-17T07:35:19.573Z,15.30
2023-02-17T07:37:46.071Z,14.68
2023-02-17T07:40:13.394Z,15.18
2023-02-17T07:42:39.962Z,15.45
2023-02-17T07:45:07.231Z,15.32
2023-02-17T07:47:33.840Z,15.38
2023-02-17T07:50:00.266Z,15.98
2023-02-17T07:52:26.801Z,14.25
2023-02-17T07:54:53.274Z,14.77
2023-02-17T07:57:19.789Z,13.30
2023-02-17T07:59:49.154Z,15.77
2023-02-17T08:02:15.777Z,15.25
2023-02-17T08:04:42.752Z,14.90
2023-02-17T08:07:09.213Z,14.38
2023-02-17T08:09:54.203Z,15.70
2023-02-17T08:12:40.213Z,15.48
2023-02-17T08:15:08.576Z,15.48
2023-02-17T08:17:35.250Z,15.13
2023-02-17T08:20:08.359Z,14.32
2023-02-17T08:22:35.747Z,16.15
2023-02-17T08:25:02.428Z,14.60
2023-02-17T08:27:28.924Z,15.00
2023-02-17T08:29:55.933Z,13.60
2023-02-17T08:32:22.620Z,14.60
2023-02-17T08:34:49.586Z,14.35
2023-02-17T08:37:16.126Z,13.90
2023-02-17T08:39:42.675Z,13.85
2023-02-17T08:42:09.168Z,13.57
2023-02-17T08:44:36.497Z,13.68
2023-02-17T08:47:05.044Z,13.40
2023-02-17T08:49:32.658Z,14.13
2023-02-17T08:51:59.908Z,11.73
2023-02-17T08:54:26.693Z,12.98
2023-02-17T08:56:53.242Z,13.38
2023-02-17T08:59:19.839Z,13.10
2023-02-17T09:01:46.416Z,13.50
2023-02-17T09:04:14.505Z,12.32
2023-02-17T09:06:47.455Z,12.38
2023-02-17T09:09:16.567Z,12.10
2023-02-17T09:11:43.416Z,11.35
2023-02-17T09:14:10.099Z,11.77
2023-02-17T09:16:37.727Z,11.40
2023-02-17T09:19:05.651Z,11.65
2023-02-17T09:21:32.390Z,10.75
2023-02-17T09:23:58.946Z,11.98
2023-02-17T09:26:25.653Z,10.48
2023-02-17T09:28:52.312Z,10.98
2023-02-17T09:31:22.001Z,11.30
2023-02-17T09:33:50.000Z,10.77
2023-02-17T09:36:20.289Z,10.98
2023-02-17T09:38:47.243Z,12.07
2023-02-17T09:41:41.768Z,9.45
2023-02-17T09:44:19.360Z,10.40
2023-02-17T09:47:01.640Z,10.75
2023-02-17T09:49:36.717Z,10.70
2023-02-17T09:52:15.344Z,9.68
2023-02-17T09:54:47.561Z,10.32
2023-02-17T09:57:20.799Z,9.27
2023-02-17T09:59:55.898Z,9.40
2023-02-17T10:02:32.348Z,9.43
2023-02-17T10:05:08.973Z,9.07
2023-02-17T10:07:41.854Z,9.27
2023-02-17T10:10:14.107Z,8.40
2023-02-17T10:12:49.268Z,8.30
2023-02-17T10:15:25.551Z,8.25
2023-02-17T10:17:52.236Z,7.45
2023-02-17T10:20:31.571Z,8.00
2023-02-17T10:23:14.213Z,7.30
2023-02-17T10:26:18.069Z,7.63
2023-02-17T10:28:50.795Z,8.43
2023-02-17T10:31:45.445Z,7.50
2023-02-17T10:34:33.807Z,6.88
2023-02-17T10:37:03.314Z,7.10
2023-02-17T10:39:44.757Z,7.60
2023-02-17T10:42:36.370Z,7.15
2023-02-17T10:45:25.044Z,6.75
2023-02-17T10:48:00.571Z,7.40
2023-02-17T10:50:27.118Z,6.53
2023-02-17T10:52:56.261Z,6.90
2023-02-17T10:55:32.105Z,6.47
2023-02-17T10:58:39.982Z,7.05
2023-02-17T11:01:08.578Z,6.15
2023-02-17T11:03:36.908Z,6.47
2023-02-17T11:06:07.202Z,6.15
2023-02-17T11:08:39.238Z,5.82
2023-02-17T11:11:14.250Z,5.20
2023-02-17T11:13:45.603Z,5.32
2023-02-17T11:16:28.950Z,5.65
2023-02-17T11:18:56.295Z,5.55
2023-02-17T11:21:23.117Z,6.10
2023-02-17T11:23:52.264Z,5.68
2023-02-17T11:26:24.602Z,5.32
2023-02-17T11:28:51.295Z,5.40
2023-02-17T11:31:25.405Z,5.10
2023-02-17T11:33:52.108Z,5.10
2023-02-17T11:36:25.320Z,5.38
2023-02-17T11:38:51.849Z,4.88
2023-02-17T11:41:22.086Z,4.30
2023-02-17T11:43:59.243Z,5.13
2023-02-17T11:46:25.687Z,5.10
2023-02-17T11:49:18.117Z,4.90
2023-02-17T11:51:59.623Z,4.90
2023-02-17T11:55:01.513Z,3.97
2023-02-17T11:57:53.838Z,4.85
2023-02-17T12:00:22.651Z,4.65
2023-02-17T12:02:58.148Z,4.30
2023-02-17T12:05:35.356Z,4.50
2023-02-17T12:08:27.349Z,3.90
2023-02-17T12:11:18.594Z,4.43
2023-02-17T12:14:10.810Z,4.07
2023-02-17T12:19:39.749Z,4.60
2023-02-17T12:22:18.110Z,4.30
2023-02-17T12:25:17.203Z,4.03
2023-02-17T12:28:17.319Z,4.28
2023-02-17T12:30:49.861Z,4.40
2023-02-17T12:33:41.426Z,5.10
2023-02-17T12:36:11.585Z,4.80
2023-02-17T12:38:49.939Z,5.00
2023-02-17T12:41:35.496Z,4.57
2023-02-17T12:44:23.481Z,4.40
2023-02-17T12:46:57.533Z,4.70
2023-02-17T12:49:23.925Z,4.32
2023-02-17T12:51:59.187Z,4.03
2023-02-17T12:54:38.418Z,4.00
2023-02-17T12:57:11.443Z,4.47
2023-02-17T12:59:43.881Z,4.47
2023-02-17T13:02:36.812Z,4.53
2023-02-17T13:05:14.363Z,4.35
2023-02-17T13:07:49.745Z,4.72
2023-02-17T13:10:28.397Z,6.88
2023-02-17T13:13:02.975Z,5.60
2023-02-17T13:15:36.401Z,6.57
2023-02-17T13:18:07.256Z,5.70
2023-02-17T13:20:54.420Z,5.07
2023-02-17T13:23:36.893Z,5.38
2023-02-17T13:26:17.790Z,4.90
2023-02-17T13:28:44.942Z,4.88
2023-02-17T13:31:16.232Z,4.50
2023-02-17T13:33:52.057Z,5.00
2023-02-17T13:36:32.604Z,5.20
2023-02-17T13:39:03.231Z,5.53
2023-02-17T13:41:48.408Z,4.28
2023-02-17T13:44:44.584Z,4.68
2023-02-17T13:47:21.294Z,4.93
2023-02-17T13:49:57.022Z,5.45
2023-02-17T13:52:27.490Z,4.70
2023-02-17T13:55:08.974Z,5.13
2023-02-17T13:57:37.025Z,5.50
2023-02-17T14:00:21.412Z,5.63
2023-02-17T14:02:59.529Z,4.78
2023-02-17T14:05:32.204Z,5.60
2023-02-17T14:08:04.378Z,4.68
2023-02-17T14:10:31.378Z,4.68
2023-02-17T14:12:58.295Z,6.18
2023-02-17T14:15:27.960Z,5.15
2023-02-17T14:17:54.832Z,4.55
2023-02-17T14:20:36.066Z,5.80
2023-02-17T14:23:10.023Z,5.53
2023-02-17T14:25:40.410Z,5.65
2023-02-17T14:28:27.862Z,6.97
2023-02-17T14:30:54.514Z,6.70
2023-02-17T14:33:25.800Z,7.63
2023-02-17T14:36:01.114Z,8.57
2023-02-17T14:38:35.249Z,9.35
2023-02-17T14:41:02.488Z,7.68
2023-02-17T14:43:29.143Z,8.18
2023-02-17T14:45:55.832Z,7.93
2023-02-17T14:48:22.384Z,8.43
2023-02-17T14:50:49.410Z,7.75
2023-02-17T14:53:29.647Z,7.93
2023-02-17T14:56:08.286Z,8.90
2023-02-17T14:58:35.236Z,8.95
2023-02-17T15:01:02.054Z,9.43
2023-02-17T15:03:28.566Z,9.60
2023-02-17T15:05:55.632Z,10.05
2023-02-17T15:08:29.870Z,9.43
2023-02-17T15:10:56.415Z,11.55
2023-02-17T15:13:22.957Z,11.90
2023-02-17T15:15:49.749Z,12.00
2023-02-17T15:18:19.761Z,10.70
2023-02-17T15:20:51.920Z,11.52
2023-02-17T15:23:20.799Z,11.25
2023-02-17T15:25:48.621Z,11.45
2023-02-17T15:28:17.961Z,10.95
2023-02-17T15:30:54.537Z,9.93
2023-02-17T15:33:23.265Z,11.52
2023-02-17T15:35:53.648Z,9.32
2023-02-17T15:38:21.073Z,11.57
2023-02-17T15:40:47.693Z,9.80
2023-02-17T15:43:19.352Z,9.32
2023-02-17T15:45:46.375Z,12.60
2023-02-17T15:48:24.619Z,9.52
2023-02-17T15:50:52.269Z,12.02
2023-02-17T15:53:19.007Z,12.10
2023-02-17T15:55:46.283Z,12.20
2023-02-17T15:58:16.656Z,12.40
2023-02-17T16:00:46.078Z,13.00
2023-02-17T16:03:14.001Z,9.55
2023-02-17T16:05:41.536Z,8.45
2023-02-17T16:08:08.389Z,9.07
2023-02-17T16:10:35.594Z,9.75
2023-02-17T16:13:03.059Z,6.38
2023-02-17T16:15:32.473Z,8.57
2023-02-17T16:17:59.404Z,7.50
2023-02-17T16:20:35.221Z,10.13
2023-02-17T16:23:02.196Z,6.70
2023-02-17T16:25:29.737Z,6.13
2023-02-17T16:27:56.962Z,6.55
2023-02-17T16:30:33.676Z,6.40
2023-02-17T16:33:00.919Z,11.00
2023-02-17T16:35:29.855Z,8.13
2023-02-17T16:38:02.732Z,9.43
2023-02-17T16:40:30.967Z,8.30
2023-02-17T16:43:00.288Z,5.97
2023-02-17T16:45:32.523Z,8.20
2023-02-17T16:48:01.105Z,7.90
2023-02-17T16:50:31.264Z,7.13
2023-02-17T16:53:00.742Z,7.00
2023-02-17T16:55:30.839Z,8.95
2023-02-17T16:57:58.298Z,7.05
2023-02-17T17:00:27.851Z,7.68
2023-02-17T17:02:54.668Z,7.85
2023-02-17T17:05:22.024Z,9.50
2023-02-17T17:07:51.094Z,11.40
2023-02-17T17:10:24.352Z,10.25
2023-02-17T17:12:50.986Z,8.35
2023-02-17T17:15:18.406Z,13.15
2023-02-17T17:17:56.981Z,9.15
2023-02-17T17:20:31.043Z,8.07
2023-02-17T17:23:06.318Z,7.20
2023-02-17T17:25:34.661Z,10.27
2023-02-17T17:28:01.204Z,8.77
2023-02-17T17:30:31.702Z,7.07
2023-02-17T17:32:59.018Z,8.07
2023-02-17T17:35:27.123Z,8.32
2023-02-17T17:37:54.146Z,6.85
2023-02-17T17:40:32.272Z,7.35
2023-02-17T17:42:59.785Z,8.27
2023-02-17T17:45:26.524Z,7.10
2023-02-17T17:47:55.752Z,7.57
2023-02-17T17:50:23.574Z,7.25
2023-02-17T17:52:50.127Z,7.53
2023-02-17T17:55:16.854Z,7.93
2023-02-17T17:57:43.366Z,8.27
2023-02-17T18:00:13.906Z,8.80
2023-02-17T18:02:40.420Z,7.30
2023-02-17T18:05:07.397Z,7.95
2023-02-17T18:07:36.155Z,7.85
2023-02-17T18:10:08.331Z,8.07
2023-02-17T18:12:36.532Z,7.32
2023-02-17T18:15:04.457Z,7.65
2023-02-17T18:17:33.658Z,5.78
2023-02-17T18:20:00.224Z,8.27
2023-02-17T18:22:27.278Z,8.52
2023-02-17T18:24:53.887Z,7.72
2023-02-17T18:27:20.363Z,8.73
2023-02-17T18:29:46.834Z,8.10
2023-02-17T18:32:13.299Z,9.13
2023-02-17T18:34:40.041Z,9.38
2023-02-17T18:37:08.144Z,8.75
2023-02-17T18:39:34.714Z,9.00
2023-02-17T18:42:01.196Z,7.85
2023-02-17T18:44:27.691Z,7.55
2023-02-17T18:46:54.175Z,8.40
2023-02-17T18:49:20.677Z,7.85
2023-02-17T18:51:47.507Z,8.15
2023-02-17T18:54:14.696Z,8.32
2023-02-17T18:56:41.204Z,7.30
2023-02-17T18:59:07.730Z,9.43
2023-02-17T19:01:39.150Z,8.77
2023-02-17T19:04:05.990Z,6.78
2023-02-17T19:06:34.777Z,10.35
2023-02-17T19:09:04.289Z,8.93
2023-02-17T19:11:32.443Z,10.63
2023-02-17T19:14:01.030Z,10.80
2023-02-17T19:16:29.939Z,10.48
2023-02-17T19:18:57.451Z,10.00
2023-02-17T19:21:24.736Z,7.82
2023-02-17T19:23:51.435Z,8.27
2023-02-17T19:26:18.930Z,7.85
2023-02-17T19:28:46.206Z,5.55
2023-02-17T19:31:15.882Z,5.15
2023-02-17T19:33:44.297Z,3.10
2023-02-17T19:36:13.117Z,3.50
2023-02-17T19:38:39.869Z,3.65
2023-02-17T19:41:09.296Z,3.15
2023-02-17T19:43:35.942Z,3.30
2023-02-17T19:46:03.392Z,2.65
2023-02-17T19:48:30.081Z,2.20
2023-02-17T19:51:01.902Z,3.10
2023-02-17T19:53:28.699Z,2.88
2023-02-17T19:56:06.025Z,2.80
2023-02-17T19:58:32.734Z,2.90
2023-02-17T20:01:07.662Z,2.40
2023-02-17T20:03:34.640Z,2.08
2023-02-17T20:06:18.038Z,2.20
2023-02-17T20:08:45.978Z,2.20
2023-02-17T20:11:13.309Z,2.33
2023-02-17T20:13:46.132Z,2.58
2023-02-17T20:16:18.350Z,3.22
2023-02-17T20:18:48.104Z,2.17
2023-02-17T20:21:17.919Z,2.03
2023-02-17T20:23:44.759Z,2.00
2023-02-17T20:26:14.689Z,1.83
2023-02-17T20:28:41.216Z,2.17
2023-02-17T20:31:11.973Z,2.65
2023-02-17T20:33:39.207Z,2.30
2023-02-17T20:36:10.095Z,2.33
2023-02-17T20:38:37.605Z,1.98
2023-02-17T20:41:05.523Z,2.28
2023-02-17T20:43:32.396Z,2.28
2023-02-17T20:45:59.017Z,2.85
2023-02-17T20:48:28.542Z,2.50
2023-02-17T20:50:56.495Z,2.75
2023-02-17T20:53:23.911Z,2.47
2023-02-17T20:55:53.743Z,2.28
2023-02-17T20:58:20.446Z,2.35
2023-02-17T21:00:47.531Z,2.50
2023-02-17T21:03:14.346Z,2.40
2023-02-17T21:05:41.380Z,1.55
2023-02-17T21:08:10.686Z,2.50
2023-02-17T21:10:42.474Z,2.50
2023-02-17T21:13:12.040Z,2.47
2023-02-17T21:15:38.539Z,2.97
2023-02-17T21:18:05.692Z,3.40
2023-02-17T21:20:32.486Z,3.45
2023-02-17T21:23:03.201Z,2.22
2023-02-17T21:25:29.788Z,2.30
2023-02-17T21:27:56.421Z,2.83
2023-02-17T21:30:26.352Z,2.22
2023-02-17T21:32:55.302Z,2.13
2023-02-17T21:35:27.646Z,2.60
2023-02-17T21:37:54.874Z,2.47
2023-02-17T21:40:24.911Z,2.40
2023-02-17T21:43:09.915Z,2.80
2023-02-17T21:45:38.364Z,2.55
2023-02-17T21:48:06.495Z,1.88
2023-02-17T21:50:33.224Z,1.90
2023-02-17T21:52:59.751Z,1.63
2023-02-17T21:55:26.448Z,2.17
2023-02-17T21:57:55.558Z,2.10
2023-02-17T22:00:22.136Z,2.30
2023-02-17T22:02:48.634Z,1.55
2023-02-17T22:05:15.237Z,1.42
2023-02-17T22:07:41.780Z,2.40
2023-02-17T22:10:08.552Z,2.20
2023-02-17T22:12:38.156Z,2.25
2023-02-17T22:15:08.425Z,2.20
2023-02-17T22:17:35.582Z,2.38
2023-02-17T22:20:04.552Z,2.38
2023-02-17T22:22:33.873Z,2.10
2023-02-17T22:25:00.342Z,2.42
2023-02-17T22:27:26.828Z,2.65
2023-02-17T22:29:55.351Z,2.70
2023-02-17T22:32:27.934Z,2.35
2023-02-17T22:34:54.682Z,2.22
2023-02-17T22:37:21.176Z,1.95
2023-02-17T22:39:47.691Z,2.28
2023-02-17T22:42:17.610Z,2.35
2023-02-17T22:44:44.110Z,2.70
2023-02-17T22:47:10.633Z,2.60
2023-02-17T22:49:37.214Z,2.38
2023-02-17T22:52:04.136Z,3.22
2023-02-17T22:54:35.703Z,2.05
2023-02-17T22:57:02.176Z,2.10
2023-02-17T22:59:31.756Z,2.40
2023-02-17T23:01:59.073Z,1.92
2023-02-17T23:04:26.085Z,2.50
2023-02-17T23:06:52.586Z,2.50
2023-02-17T23:09:19.539Z,2.08
2023-02-17T23:11:50.186Z,1.48
2023-02-17T23:14:32.470Z,2.03
2023-02-17T23:17:01.801Z,2.33
2023-02-17T23:19:29.087Z,2.13
2023-02-17T23:21:58.926Z,1.45
2023-02-17T23:24:30.250Z,2.00
2023-02-17T23:26:59.930Z,2.40
2023-02-17T23:29:28.316Z,1.70
2023-02-17T23:31:54.971Z,1.60
2023-02-17T23:34:25.521Z,2.50
2023-02-17T23:36:52.008Z,1.92
2023-02-17T23:39:21.429Z,2.33
2023-02-17T23:41:50.616Z,2.20
2023-02-17T23:44:17.243Z,2.42
2023-02-17T23:46:44.913Z,2.28
2023-02-17T23:49:18.240Z,2.35
2023-02-17T23:51:46.765Z,2.35
2023-02-17T23:54:18.457Z,2.20
2023-02-17T23:56:44.984Z,1.77
2023-02-17T23:59:11.725Z,2.15
